Time;durP1;ratioP1;P1;durP2;ratioP2;P2;SDS_P1;SDS_P2;PMS_P1;PMS_P2;Temp;Humidity;BMP_temperature;BMP_pressure;BME280_temperature;BME280_humidity;BME280_pressure;Samples;Min_cycle;Max_cycle;Signal;HPM_P1;HPM_P2
2022/07/01 00:00:20;;;;;;;;;1.00;0.50;;;;;16.80;69.77;101399.38;5012432;28;8908;-65
2022/07/01 00:02:47;;;;;;;;;1.00;1.00;;;;;16.78;69.50;101402.31;5010629;28;8826;-66
2022/07/01 00:05:14;;;;;;;;;0.25;0.25;;;;;16.78;69.49;101396.06;5013063;28;8822;-65
2022/07/01 00:07:43;;;;;;;;;0.75;0.75;;;;;16.74;69.68;101390.22;5008304;28;8818;-66
2022/07/01 00:10:10;;;;;;;;;1.00;1.00;;;;;16.72;69.59;101394.16;5008483;28;8846;-66
2022/07/01 00:12:37;;;;;;;;;2.25;1.25;;;;;16.70;69.86;101397.13;5007315;28;9011;-66
2022/07/01 00:15:03;;;;;;;;;2.25;2.25;;;;;16.66;69.62;101400.50;5012481;28;8834;-66
2022/07/01 00:17:30;;;;;;;;;2.00;2.00;;;;;16.64;69.84;101392.56;5008260;28;8830;-65
2022/07/01 00:19:56;;;;;;;;;1.00;1.00;;;;;16.62;69.82;101391.13;5008031;28;8924;-66
2022/07/01 00:22:23;;;;;;;;;2.00;2.00;;;;;16.61;69.69;101389.44;5012489;28;8822;-65
2022/07/01 00:24:49;;;;;;;;;3.00;3.00;;;;;16.57;69.44;101397.22;5012532;28;8919;-66
2022/07/01 00:27:16;;;;;;;;;3.00;3.00;;;;;16.56;69.95;101395.53;5007688;28;8826;-65
2022/07/01 00:29:42;;;;;;;;;5.00;5.00;;;;;16.54;69.85;101393.06;5005814;28;8952;-65
2022/07/01 00:32:09;;;;;;;;;6.00;6.00;;;;;16.49;69.66;101395.59;5007519;28;9204;-66
2022/07/01 00:34:36;;;;;;;;;7.00;5.33;;;;;16.47;70.00;101399.59;4992787;28;9014;-65
2022/07/01 00:37:03;;;;;;;;;14.33;13.00;;;;;16.44;69.84;101402.75;5011247;28;9213;-65
2022/07/01 00:39:33;;;;;;;;;9.67;9.67;;;;;16.38;69.66;101406.34;5009019;28;9352;-65
2022/07/01 00:42:03;;;;;;;;;11.00;10.33;;;;;16.37;70.33;101418.28;5011402;28;9290;-65
2022/07/01 00:44:30;;;;;;;;;13.00;13.00;;;;;16.38;70.38;101425.38;5009178;28;9402;-65
2022/07/01 00:47:02;;;;;;;;;9.00;9.00;;;;;16.37;69.99;101431.84;4992943;28;9968;-65
2022/07/01 00:49:29;;;;;;;;;20.25;16.00;;;;;16.30;70.33;101431.88;5003650;28;9857;-67
2022/07/01 00:51:57;;;;;;;;;15.67;12.00;;;;;16.33;70.71;101431.47;5008524;28;9451;-66
2022/07/01 00:54:26;;;;;;;;;16.67;12.67;;;;;16.35;70.54;101417.66;5011611;28;9436;-66
2022/07/01 00:56:53;;;;;;;;;10.67;10.67;;;;;16.33;70.39;101426.03;5011898;28;9321;-64
2022/07/01 00:59:19;;;;;;;;;13.00;13.00;;;;;16.32;70.49;101427.88;4998981;28;9260;-64
2022/07/01 01:01:46;;;;;;;;;20.33;18.67;;;;;16.32;70.32;101438.75;5006638;28;9423;-66
2022/07/01 01:04:12;;;;;;;;;23.25;20.75;;;;;16.21;70.56;101431.31;4996644;28;9324;-64
2022/07/01 01:06:39;;;;;;;;;17.67;17.00;;;;;16.19;71.37;101435.28;5006333;28;9525;-65
2022/07/01 01:09:06;;;;;;;;;16.67;16.67;;;;;16.15;71.28;101425.91;5011091;28;9229;-64
2022/07/01 01:11:32;;;;;;;;;16.33;16.00;;;;;16.11;71.43;101427.38;5010516;28;9403;-64
2022/07/01 01:13:59;;;;;;;;;17.75;15.75;;;;;16.12;71.26;101423.63;5009941;28;9384;-64
2022/07/01 01:16:25;;;;;;;;;21.50;19.75;;;;;16.09;71.10;101422.19;5011046;28;9349;-65
2022/07/01 01:18:53;;;;;;;;;21.50;20.50;;;;;16.03;71.42;101421.16;4998734;28;9478;-65
2022/07/01 01:21:19;;;;;;;;;14.67;14.33;;;;;16.06;71.76;101409.84;4993730;28;9529;-65
2022/07/01 01:23:46;;;;;;;;;21.75;21.25;;;;;16.09;71.67;101405.88;5008493;28;9328;-64
2022/07/01 01:26:20;;;;;;;;;17.00;15.50;;;;;16.12;71.44;101402.72;5004629;28;9529;-64
2022/07/01 01:28:48;;;;;;;;;15.50;15.50;;;;;16.13;71.66;101400.84;4992911;28;9550;-65
2022/07/01 01:31:15;;;;;;;;;19.00;17.75;;;;;16.13;71.30;101407.13;4991692;28;9498;-65
2022/07/01 01:33:42;;;;;;;;;19.00;17.67;;;;;16.15;71.60;101413.16;4983223;28;10683;-65
2022/07/01 01:36:09;;;;;;;;;20.25;17.50;;;;;16.12;71.13;101413.56;5010176;28;9582;-64
2022/07/01 01:38:36;;;;;;;;;20.00;18.50;;;;;16.11;71.64;101430.09;4993092;28;9615;-65
2022/07/01 01:41:04;;;;;;;;;16.75;16.75;;;;;16.10;71.62;101428.44;5009667;28;9543;-64
2022/07/01 01:43:34;;;;;;;;;17.75;16.00;;;;;16.09;71.64;101433.03;5006306;28;9673;-66
2022/07/01 01:46:01;;;;;;;;;24.50;19.75;;;;;16.07;71.64;101427.81;5010986;28;9390;-65
2022/07/01 01:48:29;;;;;;;;;18.00;17.25;;;;;16.07;71.84;101426.97;5010810;28;9531;-66
2022/07/01 01:50:56;;;;;;;;;21.25;20.75;;;;;16.04;71.87;101435.56;5003180;28;9526;-66
2022/07/01 01:53:23;;;;;;;;;22.50;19.75;;;;;16.02;71.95;101457.50;5005067;28;9605;-66
2022/07/01 01:55:50;;;;;;;;;21.00;20.50;;;;;16.01;71.90;101444.16;5001208;28;9644;-65
2022/07/01 01:58:16;;;;;;;;;27.25;25.25;;;;;15.95;72.05;101447.72;5008898;28;9773;-65
2022/07/01 02:00:43;;;;;;;;;25.50;22.00;;;;;15.92;71.90;101443.56;5004000;28;9803;-65
2022/07/01 02:03:10;;;;;;;;;23.00;21.25;;;;;15.93;72.32;101449.81;5005974;28;9605;-64
2022/07/01 02:05:36;;;;;;;;;27.50;24.00;;;;;15.91;72.48;101454.63;5011090;28;9693;-65
2022/07/01 02:08:04;;;;;;;;;24.50;22.00;;;;;15.91;72.43;101462.75;5000000;28;9784;-66
2022/07/01 02:10:30;;;;;;;;;31.25;29.25;;;;;15.90;72.49;101455.69;5006800;28;9849;-66
2022/07/01 02:12:57;;;;;;;;;30.25;28.25;;;;;15.89;72.37;101454.03;5009235;28;9951;-66
2022/07/01 02:15:24;;;;;;;;;25.25;23.25;;;;;15.88;72.23;101460.47;5010030;28;9716;-65
2022/07/01 02:17:51;;;;;;;;;20.75;17.25;;;;;15.89;72.55;101459.44;5010546;28;10341;-65
2022/07/01 02:20:17;;;;;;;;;23.00;21.00;;;;;15.86;72.32;101459.88;5010046;28;9607;-65
2022/07/01 02:22:44;;;;;;;;;29.50;24.75;;;;;15.74;72.45;101465.94;5007119;28;9773;-65
2022/07/01 02:25:10;;;;;;;;;24.75;23.75;;;;;15.74;72.67;101465.94;5004128;28;9796;-66
2022/07/01 02:27:37;;;;;;;;;24.50;22.75;;;;;15.75;72.41;101456.75;5010350;28;9720;-66
2022/07/01 02:30:05;;;;;;;;;21.75;20.75;;;;;15.78;72.34;101448.19;5007766;28;9900;-65
2022/07/01 02:32:32;;;;;;;;;22.50;20.25;;;;;15.78;72.34;101450.91;4999055;28;9800;-65
2022/07/01 02:34:59;;;;;;;;;20.50;19.50;;;;;15.78;72.51;101459.06;5005684;28;9742;-66
2022/07/01 02:37:27;;;;;;;;;23.25;20.25;;;;;15.77;72.49;101460.09;5002739;28;9638;-67
2022/07/01 02:39:53;;;;;;;;;23.50;22.25;;;;;15.72;72.41;101462.63;5009660;28;9450;-66
2022/07/01 02:42:23;;;;;;;;;23.75;21.00;;;;;15.71;72.12;101455.50;4997841;28;9901;-65
2022/07/01 02:44:49;;;;;;;;;23.75;21.25;;;;;15.70;72.35;101448.44;5006063;28;9878;-65
2022/07/01 02:47:16;;;;;;;;;28.75;27.00;;;;;15.71;72.30;101460.13;5014160;28;9886;-66
2022/07/01 02:49:42;;;;;;;;;22.25;22.25;;;;;15.67;72.26;101465.13;5012605;28;9787;-66
2022/07/01 02:52:08;;;;;;;;;19.75;18.00;;;;;15.66;72.34;101458.03;5011451;28;9872;-64
2022/07/01 02:54:36;;;;;;;;;20.50;18.00;;;;;15.66;72.10;101470.78;5010230;28;9592;-66
2022/07/01 02:57:03;;;;;;;;;21.50;19.50;;;;;15.64;72.25;101476.41;5003261;28;9708;-65
2022/07/01 02:59:29;;;;;;;;;23.00;20.00;;;;;15.61;72.17;101476.00;5006192;28;9735;-66
2022/07/01 03:01:56;;;;;;;;;27.50;21.75;;;;;15.61;72.46;101474.09;5008691;28;9738;-65
2022/07/01 03:04:23;;;;;;;;;17.00;16.50;;;;;15.62;72.22;101483.06;5009863;28;9958;-65
2022/07/01 03:06:49;;;;;;;;;21.75;21.50;;;;;15.57;72.36;101489.97;5013817;28;9792;-65
2022/07/01 03:09:16;;;;;;;;;23.75;19.25;;;;;15.52;72.23;101491.66;5013818;28;9914;-65
2022/07/01 03:11:42;;;;;;;;;18.00;18.00;;;;;15.49;72.43;101481.22;5012262;28;9834;-66
2022/07/01 03:14:08;;;;;;;;;15.25;13.50;;;;;15.46;72.59;101452.63;5012297;28;9793;-66
2022/07/01 03:16:35;;;;;;;;;14.50;13.75;;;;;15.46;72.81;101447.19;5012341;28;9645;-66
2022/07/01 03:19:02;;;;;;;;;18.00;18.00;;;;;15.45;72.62;101445.53;5013749;28;9586;-65
2022/07/01 03:21:28;;;;;;;;;24.25;23.25;;;;;15.45;72.37;101445.53;5009614;28;9613;-66
2022/07/01 03:23:54;;;;;;;;;19.00;18.00;;;;;15.43;72.03;101441.34;5009214;28;9944;-65
2022/07/01 03:26:21;;;;;;;;;19.75;18.25;;;;;15.42;72.73;101442.41;5005731;28;9785;-66
2022/07/01 03:28:48;;;;;;;;;20.50;16.25;;;;;15.42;72.66;101447.84;5009841;28;9657;-65
2022/07/01 03:31:14;;;;;;;;;19.50;17.50;;;;;15.41;72.38;101452.44;5003313;28;9678;-66
2022/07/01 03:33:41;;;;;;;;;21.00;19.75;;;;;15.38;72.68;101449.31;5006831;28;9624;-65
2022/07/01 03:36:08;;;;;;;;;19.00;16.25;;;;;15.39;72.40;101446.38;5010124;28;9632;-66
2022/07/01 03:38:35;;;;;;;;;14.25;13.25;;;;;15.39;72.74;101448.25;5005773;28;9675;-65
2022/07/01 03:41:04;;;;;;;;;18.25;16.50;;;;;15.39;72.62;101448.25;4994339;28;9633;-65
2022/07/01 03:43:30;;;;;;;;;16.50;15.50;;;;;15.38;72.73;101446.59;5005668;28;9826;-64
2022/07/01 03:45:57;;;;;;;;;18.75;15.00;;;;;15.40;72.58;101456.19;5004260;28;9695;-64
2022/07/01 03:48:25;;;;;;;;;15.50;14.50;;;;;15.42;72.76;101450.56;4999577;28;9690;-64
2022/07/01 03:50:52;;;;;;;;;16.75;14.75;;;;;15.43;72.47;101460.34;5011469;28;9743;-64
2022/07/01 03:56:17;;;;;;;;;14.50;12.00;;;;;15.43;72.72;101465.78;4960064;28;9674;-64
2022/07/01 03:58:43;;;;;;;;;15.25;12.50;;;;;15.41;72.65;101470.59;4993578;28;9812;-64
2022/07/01 04:01:10;;;;;;;;;12.00;12.00;;;;;15.39;72.37;101462.66;5003709;28;9786;-64
2022/07/01 04:03:36;;;;;;;;;17.75;15.50;;;;;15.38;72.72;101471.84;5011835;28;9694;-63
2022/07/01 04:06:03;;;;;;;;;14.25;14.25;;;;;15.36;72.38;101481.25;5012931;28;9678;-63
2022/07/01 04:08:30;;;;;;;;;16.25;14.25;;;;;15.33;72.57;101491.47;4994054;28;9612;-63
2022/07/01 04:10:56;;;;;;;;;13.00;13.00;;;;;15.31;72.46;101503.56;4993356;28;9790;-64
2022/07/01 04:13:23;;;;;;;;;15.25;12.25;;;;;15.32;73.00;101506.06;5003786;28;9458;-65
2022/07/01 04:16:00;;;;;;;;;14.50;11.00;;;;;15.30;72.82;101504.59;5011606;28;9536;-64
2022/07/01 04:18:28;;;;;;;;;19.00;15.00;;;;;15.31;73.10;101501.69;5010561;28;9523;-64
2022/07/01 04:23:40;;;;;;;;;14.75;13.75;;;;;15.29;73.06;101511.91;5039535;28;9643;-65
2022/07/01 04:26:06;;;;;;;;;12.50;12.50;;;;;15.31;72.71;101512.56;5036160;28;9800;-65
2022/07/01 04:28:54;;;;;;;;;10.75;10.00;;;;;15.32;73.01;101516.09;5031646;28;9429;-65
2022/07/01 04:31:21;;;;;;;;;9.75;8.00;;;;;15.32;72.93;101514.22;5027264;28;9444;-65
2022/07/01 04:33:48;;;;;;;;;14.50;14.25;;;;;15.29;73.11;101506.50;5020609;28;9520;-64
2022/07/01 04:36:15;;;;;;;;;14.75;11.25;;;;;15.31;73.20;101517.97;5018760;28;9516;-65
2022/07/01 04:38:41;;;;;;;;;10.00;9.33;;;;;15.31;73.26;101523.41;5042131;28;9510;-64
2022/07/01 04:43:53;;;;;;;;;11.25;10.75;;;;;15.25;73.06;101524.22;5019285;28;9641;-66
2022/07/01 04:46:20;;;;;;;;;14.25;11.50;;;;;15.24;73.35;101530.69;5004914;28;9537;-66
2022/07/01 04:48:46;;;;;;;;;13.50;12.75;;;;;15.20;73.49;101526.72;4998992;28;9558;-66
2022/07/01 04:51:13;;;;;;;;;8.50;8.50;;;;;15.20;73.22;101520.47;5011365;28;9588;-66
2022/07/01 04:53:39;;;;;;;;;16.50;15.25;;;;;15.21;73.13;101520.25;5015956;28;9443;-65
2022/07/01 04:56:06;;;;;;;;;11.25;11.25;;;;;15.24;73.25;101524.44;5014378;28;9665;-66
2022/07/01 04:58:32;;;;;;;;;11.00;10.00;;;;;15.27;73.46;101522.16;5012134;28;9437;-65
2022/07/01 05:00:58;;;;;;;;;10.50;9.25;;;;;15.28;73.49;101528.41;5014212;28;9386;-65
2022/07/01 05:03:25;;;;;;;;;15.25;15.25;;;;;15.26;73.65;101519.63;5020769;28;9599;-65
2022/07/01 05:05:52;;;;;;;;;10.00;10.00;;;;;15.28;73.22;101520.28;5011439;28;10289;-66
2022/07/01 05:08:18;;;;;;;;;12.25;11.25;;;;;15.29;73.52;101522.75;5010657;28;9621;-66
2022/07/01 05:10:45;;;;;;;;;11.50;9.00;;;;;15.34;73.49;101524.84;5011984;28;9608;-66
2022/07/01 05:13:11;;;;;;;;;14.00;11.00;;;;;15.38;73.55;101533.41;5016808;28;9542;-66
2022/07/01 05:15:38;;;;;;;;;12.25;12.25;;;;;15.44;73.57;101535.28;5017822;28;9473;-65
2022/07/01 05:23:38;;;;;;;;;14.50;10.75;;;;;15.41;73.67;101531.09;5013660;28;9571;-65
2022/07/01 05:26:04;;;;;;;;;9.33;8.67;;;;;15.47;74.04;101535.69;5023453;28;9509;-66
2022/07/01 05:28:31;;;;;;;;;12.67;12.67;;;;;15.49;73.67;101540.91;5010085;28;9297;-65
2022/07/01 05:30:57;;;;;;;;;10.25;10.25;;;;;15.52;74.00;101541.34;5029662;28;9545;-66
2022/07/01 05:33:26;;;;;;;;;13.50;11.25;;;;;15.58;74.12;101537.78;5022159;28;9541;-66
2022/07/01 05:35:53;;;;;;;;;11.00;10.00;;;;;15.66;73.66;101539.47;5010033;28;9370;-66
2022/07/01 05:38:20;;;;;;;;;12.67;11.67;;;;;15.67;73.44;101537.59;5012236;28;9552;-65
2022/07/01 05:40:46;;;;;;;;;8.67;8.67;;;;;15.65;73.34;101536.97;5011175;28;9464;-65
2022/07/01 05:43:13;;;;;;;;;10.00;9.33;;;;;15.67;73.30;101538.41;5011215;28;10420;-66
2022/07/01 05:45:39;;;;;;;;;13.75;12.00;;;;;15.66;73.25;101534.03;5015165;28;9288;-65
2022/07/01 05:48:06;;;;;;;;;10.67;9.33;;;;;15.66;73.40;101541.34;5014797;28;9554;-66
2022/07/01 05:50:32;;;;;;;;;12.33;11.33;;;;;15.67;73.27;101541.13;5009968;28;9474;-66
2022/07/01 05:52:59;;;;;;;;;9.33;9.33;;;;;15.71;73.16;101545.09;5013652;28;9214;-67
2022/07/01 05:55:25;;;;;;;;;12.33;9.67;;;;;15.72;73.27;101543.22;5013351;28;9262;-66
2022/07/01 05:57:52;;;;;;;;;13.00;10.67;;;;;15.69;73.37;101533.63;4999498;28;9142;-66
2022/07/01 06:00:19;;;;;;;;;10.00;8.00;;;;;15.72;73.36;101535.09;5008055;28;9323;-66
2022/07/01 06:02:45;;;;;;;;;10.00;9.67;;;;;15.69;73.43;101536.34;5018816;28;9336;-66
2022/07/01 06:05:15;;;;;;;;;9.00;7.33;;;;;15.67;73.33;101534.88;5010332;28;9383;-66
2022/07/01 06:07:42;;;;;;;;;8.33;7.67;;;;;15.68;73.42;101537.38;5010841;28;9146;-66
2022/07/01 06:10:11;;;;;;;;;16.33;12.00;;;;;15.67;73.44;101534.88;5010200;28;9321;-65
2022/07/01 06:12:39;;;;;;;;;8.33;8.33;;;;;15.69;73.35;101535.50;5010493;28;9297;-65
2022/07/01 06:15:07;;;;;;;;;11.33;10.00;;;;;15.73;73.42;101532.16;5016698;28;9312;-66
2022/07/01 06:17:35;;;;;;;;;7.67;7.00;;;;;15.70;73.11;101532.56;5016445;28;9180;-66
2022/07/01 06:20:02;;;;;;;;;8.00;8.00;;;;;15.73;73.33;101536.75;5021333;28;9294;-67
2022/07/01 06:22:29;;;;;;;;;8.67;8.00;;;;;15.76;73.38;101539.88;4990834;28;9310;-66
2022/07/01 06:24:55;;;;;;;;;8.67;7.33;;;;;15.79;73.20;101535.88;4999613;28;9239;-65
2022/07/01 06:27:23;;;;;;;;;6.67;6.67;;;;;15.88;73.53;101541.94;5009976;28;9242;-66
2022/07/01 06:29:50;;;;;;;;;8.00;8.00;;;;;15.88;72.60;101544.63;5015692;28;9181;-66
2022/07/01 06:32:17;;;;;;;;;6.33;6.00;;;;;15.91;72.67;101546.94;5010320;28;9448;-66
2022/07/01 06:34:43;;;;;;;;;7.00;7.00;;;;;15.97;73.02;101541.50;5010077;28;9062;-66
2022/07/01 06:37:10;;;;;;;;;7.00;4.33;;;;;16.04;73.02;101536.91;5017712;28;8987;-66
2022/07/01 06:39:36;;;;;;;;;10.00;10.00;;;;;16.13;72.49;101529.34;5008617;28;9006;-67
2022/07/01 06:42:03;;;;;;;;;10.67;8.33;;;;;16.09;72.68;101533.53;5011631;28;9080;-66
2022/07/01 06:44:30;;;;;;;;;13.33;8.67;;;;;16.17;72.72;101533.28;5003311;28;9064;-66
2022/07/01 06:46:56;;;;;;;;;8.00;5.00;;;;;16.26;72.24;101531.16;5006973;28;9140;-66
2022/07/01 06:49:22;;;;;;;;;11.00;8.00;;;;;16.36;72.22;101533.41;5012489;28;9125;-66
2022/07/01 06:51:49;;;;;;;;;10.67;10.00;;;;;16.38;72.09;101523.19;5015361;28;9045;-66
2022/07/01 06:54:17;;;;;;;;;9.67;9.67;;;;;16.36;71.96;101531.53;5009399;28;9092;-65
2022/07/01 06:56:44;;;;;;;;;7.00;7.00;;;;;16.39;71.65;101531.09;5015699;28;9800;-66
2022/07/01 06:59:10;;;;;;;;;8.67;8.67;;;;;16.44;71.49;101541.31;5029992;28;8906;-67
2022/07/01 07:01:37;;;;;;;;;6.67;6.67;;;;;16.46;71.67;101534.63;5021872;28;9785;-66
2022/07/01 07:04:04;;;;;;;;;9.00;7.33;;;;;16.52;71.18;101528.31;5007465;28;9772;-67
2022/07/01 07:06:30;;;;;;;;;11.00;8.67;;;;;16.50;71.20;101527.72;5010236;28;9091;-66
2022/07/01 07:09:02;;;;;;;;;10.00;6.67;;;;;16.49;70.94;101530.66;5017194;28;9147;-64
2022/07/01 07:11:28;;;;;;;;;5.00;5.00;;;;;16.45;70.73;101524.00;5029576;28;8957;-65
2022/07/01 07:13:55;;;;;;;;;7.25;7.00;;;;;16.52;70.65;101533.75;5014504;28;8993;-64
2022/07/01 07:16:22;;;;;;;;;6.25;5.75;;;;;16.55;70.88;101536.03;5006894;28;8919;-64
2022/07/01 07:18:50;;;;;;;;;5.50;4.25;;;;;16.62;70.81;101540.63;5011377;28;8834;-65
2022/07/01 07:21:16;;;;;;;;;6.50;6.00;;;;;16.58;69.96;101550.28;5003819;28;8853;-65
2022/07/01 07:23:43;;;;;;;;;6.33;5.00;;;;;16.52;69.61;101544.63;5007448;28;8828;-65
2022/07/01 07:26:10;;;;;;;;;6.00;5.00;;;;;16.51;69.28;101553.00;5016943;28;8982;-65
2022/07/01 07:28:37;;;;;;;;;5.00;4.00;;;;;16.64;69.75;101550.22;5013746;28;8920;-65
2022/07/01 07:31:03;;;;;;;;;4.00;3.00;;;;;16.66;69.26;101559.00;5011952;28;8844;-65
2022/07/01 07:33:30;;;;;;;;;4.00;4.00;;;;;16.73;68.93;101551.69;5009557;28;8828;-65
2022/07/01 07:35:56;;;;;;;;;2.00;2.00;;;;;16.75;68.71;101546.84;5013053;28;8902;-65
2022/07/01 07:38:23;;;;;;;;;4.00;4.00;;;;;16.85;68.12;101561.84;5012545;28;8871;-64
2022/07/01 07:40:49;;;;;;;;;4.67;4.67;;;;;16.92;68.43;101566.19;5012303;28;8920;-65
2022/07/01 07:43:15;;;;;;;;;3.00;3.00;;;;;16.95;68.04;101570.38;5012981;28;8935;-65
2022/07/01 07:45:42;;;;;;;;;4.00;4.00;;;;;16.98;67.55;101573.50;5011359;28;9638;-65
2022/07/01 07:48:09;;;;;;;;;4.50;4.50;;;;;16.97;66.84;101590.00;5028092;28;8837;-65
2022/07/01 07:50:36;;;;;;;;;4.00;4.00;;;;;17.00;66.90;101590.41;5032066;28;8842;-65
2022/07/01 07:53:02;;;;;;;;;1.00;1.00;;;;;17.06;67.21;101594.16;5032499;28;8810;-65
2022/07/01 07:55:29;;;;;;;;;3.75;2.50;;;;;17.08;66.58;101591.22;5018110;28;8806;-65
2022/07/01 07:57:55;;;;;;;;;2.25;2.00;;;;;17.05;66.03;101582.44;5022875;28;8838;-65
2022/07/01 08:00:22;;;;;;;;;4.75;4.75;;;;;17.10;65.76;101581.78;5015780;28;8844;-66
2022/07/01 08:02:48;;;;;;;;;1.75;1.75;;;;;17.18;65.20;101565.19;5012740;28;8841;-67
2022/07/01 08:05:15;;;;;;;;;4.75;2.50;;;;;17.28;65.18;101570.97;5023516;28;8868;-66
2022/07/01 08:07:42;;;;;;;;;3.00;3.00;;;;;17.35;64.74;101578.28;5024933;28;8900;-67
2022/07/01 08:10:15;;;;;;;;;2.00;2.00;;;;;17.41;64.44;101571.94;5012872;28;9582;-66
2022/07/01 08:12:41;;;;;;;;;3.75;3.75;;;;;17.45;63.67;101573.16;5011369;28;8821;-67
2022/07/01 08:15:08;;;;;;;;;4.00;4.00;;;;;17.44;63.93;101580.47;5017196;28;8863;-66
2022/07/01 08:17:35;;;;;;;;;6.67;6.00;;;;;17.32;62.90;101578.69;5018452;28;8976;-66
2022/07/01 08:20:01;;;;;;;;;6.75;5.00;;;;;17.33;63.05;101581.19;5019714;28;9030;-66
2022/07/01 08:22:28;;;;;;;;;2.00;2.00;;;;;17.41;63.36;101585.53;5018473;28;8874;-66
2022/07/01 08:24:54;;;;;;;;;2.00;2.00;;;;;17.52;63.62;101585.66;4994570;28;8824;-66
2022/07/01 08:27:22;;;;;;;;;3.00;3.00;;;;;17.53;62.98;101595.47;5009693;28;8832;-66
2022/07/01 08:29:48;;;;;;;;;3.25;3.25;;;;;17.45;61.81;101592.19;5019162;28;8825;-66
2022/07/01 08:32:15;;;;;;;;;5.75;5.25;;;;;17.50;62.25;101595.94;5005050;28;8859;-66
2022/07/01 08:34:42;;;;;;;;;6.25;4.25;;;;;17.50;61.91;101608.69;4998420;28;8819;-66
2022/07/01 08:37:09;;;;;;;;;4.00;2.50;;;;;17.67;62.47;101607.09;4999998;28;8828;-66
2022/07/01 08:39:35;;;;;;;;;2.75;2.75;;;;;17.77;62.21;101606.63;5010622;28;8830;-66
2022/07/01 08:42:03;;;;;;;;;3.00;3.00;;;;;17.89;62.42;101628.53;5022729;28;8826;-66
2022/07/01 08:44:31;;;;;;;;;5.50;3.25;;;;;17.76;62.58;101626.75;5018036;28;8832;-66
2022/07/01 08:46:57;;;;;;;;;3.00;3.00;;;;;17.75;62.83;101636.81;5006107;28;8918;-65
2022/07/01 08:49:24;;;;;;;;;5.25;5.00;;;;;17.62;62.04;101631.41;5007428;28;8835;-66
2022/07/01 08:51:50;;;;;;;;;3.25;3.00;;;;;17.65;61.92;101635.59;5020248;28;8846;-66
2022/07/01 08:54:17;;;;;;;;;2.75;1.25;;;;;17.74;62.34;101639.72;5013214;28;8836;-65
2022/07/01 08:56:47;;;;;;;;;3.00;1.50;;;;;17.76;62.64;101638.47;5010069;28;8863;-65
2022/07/01 08:59:22;;;;;;;;;2.50;1.75;;;;;17.91;62.04;101651.75;4997210;28;9528;-65
2022/07/01 09:02:04;;;;;;;;;1.50;0.50;;;;;17.96;61.94;101654.66;5011336;28;8947;-65
2022/07/01 09:04:31;;;;;;;;;1.00;1.00;;;;;17.92;62.13;101666.22;4998552;28;8852;-67
2022/07/01 09:07:09;;;;;;;;;3.00;2.00;;;;;17.66;62.46;101675.38;5004742;28;8850;-67
2022/07/01 09:09:37;;;;;;;;;1.25;1.25;;;;;17.52;63.61;101675.47;5012372;28;8858;-66
2022/07/01 09:12:05;;;;;;;;;2.00;2.00;;;;;17.41;64.15;101683.50;5018432;28;8855;-66
2022/07/01 09:14:34;;;;;;;;;2.00;1.75;;;;;17.36;64.77;101676.00;5013687;28;8901;-65
2022/07/01 09:17:03;;;;;;;;;2.00;2.00;;;;;17.33;64.90;101689.22;5013120;28;8907;-66
2022/07/01 09:19:34;;;;;;;;;1.50;1.50;;;;;17.24;64.88;101686.75;5023032;28;8814;-66
2022/07/01 09:22:02;;;;;;;;;2.00;1.00;;;;;17.21;64.76;101692.63;5013790;28;8825;-66
2022/07/01 09:24:31;;;;;;;;;1.00;1.00;;;;;17.15;63.41;101685.34;5014779;28;8939;-65
2022/07/01 09:27:09;;;;;;;;;0.00;0.00;;;;;17.16;63.25;101687.00;5018798;28;8892;-67
2022/07/01 09:29:41;;;;;;;;;1.00;1.00;;;;;17.28;62.16;101687.97;5018518;28;8850;-66
2022/07/01 09:32:11;;;;;;;;;3.00;1.00;;;;;17.37;60.32;101687.72;5013525;28;8959;-65
2022/07/01 09:34:51;;;;;;;;;1.50;1.50;;;;;17.49;60.13;101670.47;5011098;28;8828;-65
2022/07/01 09:37:24;;;;;;;;;0.00;0.00;;;;;17.68;60.11;101676.84;4997663;28;8827;-65
2022/07/01 09:39:56;;;;;;;;;1.00;0.75;;;;;17.81;59.48;101677.81;5008473;28;8832;-66
2022/07/01 09:42:24;;;;;;;;;0.50;0.50;;;;;18.00;59.44;101680.38;5013128;28;8832;-64
2022/07/01 09:45:06;;;;;;;;;0.00;0.00;;;;;18.12;58.84;101679.66;5015994;28;8828;-64
2022/07/01 09:47:34;;;;;;;;;1.00;1.00;;;;;18.06;57.82;101681.38;4996895;28;8917;-65
2022/07/01 09:50:03;;;;;;;;;1.50;0.50;;;;;18.13;58.08;101682.16;5014540;28;8848;-65
2022/07/01 09:52:30;;;;;;;;;1.75;1.00;;;;;18.21;58.13;101684.59;5004472;28;8990;-67
2022/07/01 09:55:03;;;;;;;;;2.00;2.00;;;;;18.23;57.05;101687.94;5003397;28;8829;-67
2022/07/01 09:57:30;;;;;;;;;1.00;1.00;;;;;18.25;56.18;101680.34;5022931;28;8930;-67
2022/07/01 09:59:56;;;;;;;;;1.00;1.00;;;;;18.44;56.61;101677.66;5002869;28;8840;-66
2022/07/01 10:02:24;;;;;;;;;0.25;0.25;;;;;18.42;55.95;101683.31;5003990;28;8820;-65
2022/07/01 10:05:01;;;;;;;;;1.25;1.00;;;;;18.36;55.63;101683.41;5003032;28;8921;-65
2022/07/01 10:07:52;;;;;;;;;1.50;0.50;;;;;18.22;55.32;101686.25;5004526;28;8838;-65
2022/07/01 10:10:42;;;;;;;;;0.50;0.00;;;;;18.11;55.42;101689.72;5021302;28;9690;-65
2022/07/01 10:13:13;;;;;;;;;2.00;1.00;;;;;18.15;55.91;101699.13;5007145;28;8907;-66
2022/07/01 10:15:45;;;;;;;;;1.50;0.00;;;;;18.18;55.62;101700.56;5005480;28;8947;-65
2022/07/01 10:18:23;;;;;;;;;1.00;0.00;;;;;18.37;55.91;101701.44;5003294;28;8849;-64
2022/07/01 10:20:51;;;;;;;;;0.75;0.00;;;;;18.56;55.67;101700.38;5011348;28;8860;-67
2022/07/01 10:23:23;;;;;;;;;1.50;1.00;;;;;18.62;54.64;101701.38;5017672;28;8895;-66
2022/07/01 10:25:54;;;;;;;;;1.00;1.00;;;;;18.66;54.12;101705.31;5009091;28;8904;-65
2022/07/01 10:28:28;;;;;;;;;1.00;1.00;;;;;18.79;53.85;101710.63;5020036;28;8825;-65
2022/07/01 10:31:05;;;;;;;;;1.25;1.00;;;;;18.84;53.35;101704.50;5011577;28;8832;-66
2022/07/01 10:33:33;;;;;;;;;1.00;1.00;;;;;18.91;53.18;101703.34;5008045;28;8932;-66
2022/07/01 10:36:26;;;;;;;;;1.25;1.00;;;;;18.92;53.25;101715.97;5011347;28;8836;-65
2022/07/01 10:39:03;;;;;;;;;1.00;1.00;;;;;18.92;53.87;101717.81;4999824;28;8825;-66
2022/07/01 10:41:31;;;;;;;;;0.00;0.00;;;;;18.79;55.59;101724.28;5013906;28;8833;-66
2022/07/01 10:44:05;;;;;;;;;3.00;1.00;;;;;18.60;55.28;101723.44;5016564;28;8793;-65
2022/07/01 10:46:56;;;;;;;;;1.00;1.00;;;;;18.54;56.00;101724.31;5009797;28;9022;-65
2022/07/01 10:49:46;;;;;;;;;1.00;1.00;;;;;18.47;57.32;101729.00;5018512;28;8935;-65
2022/07/01 10:52:18;;;;;;;;;2.00;2.00;;;;;18.55;58.29;101728.69;5006415;28;8913;-65
2022/07/01 10:54:48;;;;;;;;;2.25;1.75;;;;;18.53;55.29;101725.38;5010349;28;8892;-64
2022/07/01 10:57:20;;;;;;;;;1.00;1.00;;;;;18.58;55.69;101727.41;5014102;28;8898;-66
2022/07/01 10:59:52;;;;;;;;;1.00;1.00;;;;;18.54;53.42;101736.03;5016976;28;8842;-65
2022/07/01 11:02:21;;;;;;;;;0.75;0.75;;;;;18.51;52.38;101728.34;5011653;28;8844;-66
2022/07/01 11:04:51;;;;;;;;;1.00;1.00;;;;;18.53;52.33;101725.38;5010439;28;8927;-66
2022/07/01 11:07:17;;;;;;;;;2.00;2.00;;;;;18.61;52.71;101737.88;5022659;28;9560;-67
2022/07/01 11:09:44;;;;;;;;;1.75;1.75;;;;;18.76;52.81;101741.94;5014062;28;8817;-67
2022/07/01 11:12:11;;;;;;;;;1.00;1.00;;;;;18.83;51.62;101732.84;5014171;28;8849;-67
2022/07/01 11:14:40;;;;;;;;;1.00;1.00;;;;;18.99;51.44;101726.78;5012910;28;8824;-67
2022/07/01 11:17:09;;;;;;;;;1.00;1.00;;;;;19.17;52.21;101734.13;5021085;28;8834;-66
2022/07/01 11:19:36;;;;;;;;;1.75;1.75;;;;;19.24;51.58;101737.56;5019841;28;8856;-67
2022/07/01 11:22:05;;;;;;;;;1.00;1.00;;;;;19.23;51.71;101714.91;5020108;28;8810;-67
2022/07/01 11:24:31;;;;;;;;;1.00;1.00;;;;;19.21;51.78;101724.41;5013104;28;8833;-63
2022/07/01 11:27:16;;;;;;;;;2.75;2.00;;;;;19.23;51.05;101727.72;5012126;28;8963;-67
2022/07/01 11:29:43;;;;;;;;;1.00;1.00;;;;;19.31;50.79;101721.94;5016650;28;8816;-66
2022/07/01 11:32:10;;;;;;;;;0.25;0.25;;;;;19.25;50.58;101723.72;5021684;28;8871;-66
2022/07/01 11:34:37;;;;;;;;;3.00;1.50;;;;;19.22;51.58;101720.63;5021112;28;8976;-67
2022/07/01 11:40:10;;;;;;;;;2.00;2.00;;;;;19.38;52.30;101722.69;5002040;28;8914;-68
2022/07/01 11:42:37;;;;;;;;;3.25;3.00;;;;;19.32;51.07;101722.78;5014780;28;8830;-66
2022/07/01 11:45:24;;;;;;;;;1.25;1.25;;;;;19.33;50.98;101722.56;5019187;28;8964;-66
2022/07/01 11:47:51;;;;;;;;;2.00;2.00;;;;;19.26;50.69;101719.91;5012178;28;8836;-66